createdAt,value
2022-10-05T00:01:40.491Z,70.28
2022-10-05T00:04:13.527Z,69.46
2022-10-05T00:06:40.123Z,68.70
2022-10-05T00:09:12.939Z,68.92
2022-10-05T00:11:41.038Z,68.94
2022-10-05T00:14:17.049Z,67.75
2022-10-05T00:16:44.141Z,68.38
2022-10-05T00:19:19.236Z,69.05
2022-10-05T00:21:45.668Z,69.23
2022-10-05T00:24:15.306Z,68.83
2022-10-05T00:26:43.210Z,69.32
2022-10-05T00:29:19.272Z,68.73
2022-10-05T00:31:45.810Z,69.75
2022-10-05T00:34:12.282Z,69.15
2022-10-05T00:36:39.788Z,68.34
2022-10-05T00:39:06.316Z,68.62
2022-10-05T00:41:44.977Z,68.10
2022-10-05T00:44:43.133Z,69.84
2022-10-05T00:47:33.133Z,70.27
2022-10-05T00:50:37.458Z,69.33
2022-10-05T00:53:12.144Z,68.83
2022-10-05T00:55:51.444Z,67.02
2022-10-05T00:58:32.511Z,67.17
2022-10-05T01:01:05.966Z,68.65
2022-10-05T01:03:47.561Z,67.86
2022-10-05T01:06:21.826Z,66.45
2022-10-05T01:08:54.989Z,66.98
2022-10-05T01:11:29.925Z,68.79
2022-10-05T01:14:05.234Z,67.32
2022-10-05T01:16:39.257Z,68.01
2022-10-05T01:19:20.041Z,68.70
2022-10-05T01:21:56.976Z,68.39
2022-10-05T01:24:41.772Z,66.98
2022-10-05T01:27:18.086Z,68.52
2022-10-05T01:29:52.273Z,68.88
2022-10-05T01:32:25.008Z,67.27
2022-10-05T01:35:00.998Z,67.26
2022-10-05T01:37:34.568Z,68.96
2022-10-05T01:40:07.246Z,68.20
2022-10-05T01:42:46.137Z,68.34
2022-10-05T01:45:23.229Z,70.46
2022-10-05T01:47:54.679Z,68.15
2022-10-05T01:50:32.252Z,69.21
2022-10-05T01:53:06.258Z,67.74
2022-10-05T01:55:40.090Z,70.10
2022-10-05T01:58:14.909Z,69.60
2022-10-05T02:00:51.698Z,69.37
2022-10-05T02:03:23.539Z,70.70
2022-10-05T02:05:52.994Z,70.90
2022-10-05T02:08:26.831Z,70.07
2022-10-05T02:10:59.477Z,71.01
2022-10-05T02:13:30.652Z,70.13
2022-10-05T02:16:03.213Z,69.85
2022-10-05T02:18:33.893Z,70.17
2022-10-05T02:21:02.242Z,70.17
2022-10-05T02:23:33.184Z,70.02
2022-10-05T02:26:01.029Z,69.17
2022-10-05T02:28:33.330Z,69.52
2022-10-05T02:31:07.629Z,69.30
2022-10-05T02:33:35.069Z,68.02
2022-10-05T02:36:05.245Z,67.35
2022-10-05T02:38:39.880Z,68.94
2022-10-05T02:41:18.462Z,69.10
2022-10-05T02:43:51.144Z,69.39
2022-10-05T02:46:29.091Z,68.90
2022-10-05T02:49:09.992Z,68.85
2022-10-05T02:51:46.723Z,71.12
2022-10-05T02:54:27.954Z,71.49
2022-10-05T02:56:59.969Z,70.47
2022-10-05T02:59:33.471Z,69.53
2022-10-05T03:02:09.875Z,69.56
2022-10-05T03:04:42.552Z,68.19
2022-10-05T03:07:15.907Z,67.92
2022-10-05T03:09:47.836Z,67.66
2022-10-05T03:12:31.248Z,69.12
2022-10-05T03:15:09.264Z,68.47
2022-10-05T03:17:48.966Z,68.37
2022-10-05T03:20:29.532Z,68.38
2022-10-05T03:23:00.496Z,70.09
2022-10-05T03:25:50.657Z,69.91
2022-10-05T03:28:23.480Z,68.34
2022-10-05T03:30:58.602Z,69.04
2022-10-05T03:33:32.910Z,71.38
2022-10-05T03:36:06.121Z,70.64
2022-10-05T03:38:41.416Z,69.00
2022-10-05T03:41:15.065Z,70.33
2022-10-05T03:43:59.428Z,70.05
2022-10-05T03:46:44.804Z,70.86
2022-10-05T03:49:21.815Z,69.29
2022-10-05T03:51:51.677Z,69.72
2022-10-05T03:54:22.934Z,69.34
2022-10-05T03:56:54.698Z,68.92
2022-10-05T03:59:30.152Z,69.01
2022-10-05T04:02:02.209Z,69.16
2022-10-05T04:04:34.693Z,67.97
2022-10-05T04:07:02.117Z,70.10
2022-10-05T04:09:35.155Z,69.61
2022-10-05T04:12:10.991Z,70.65
2022-10-05T04:14:41.490Z,70.91
2022-10-05T04:17:12.556Z,70.86
2022-10-05T04:19:45.137Z,70.24
2022-10-05T04:22:17.335Z,69.69
2022-10-05T04:24:49.267Z,71.53
2022-10-05T04:27:19.330Z,69.54
2022-10-05T04:29:53.259Z,72.36
2022-10-05T04:32:29.259Z,70.50
2022-10-05T04:35:12.370Z,71.55
2022-10-05T04:37:49.767Z,71.13
2022-10-05T04:40:33.651Z,71.61
2022-10-05T04:43:08.262Z,71.42
2022-10-05T04:45:49.093Z,71.93
2022-10-05T04:48:38.723Z,73.71
2022-10-05T04:51:20.550Z,73.08
2022-10-05T04:53:53.942Z,72.69
2022-10-05T04:56:28.885Z,71.04
2022-10-05T04:59:10.189Z,72.54
2022-10-05T05:01:49.793Z,72.95
2022-10-05T05:04:35.622Z,73.29
2022-10-05T05:07:17.867Z,72.49
2022-10-05T05:10:13.549Z,73.11
2022-10-05T05:12:50.812Z,72.35
2022-10-05T05:15:28.237Z,71.14
2022-10-05T05:18:12.684Z,71.23
2022-10-05T05:20:54.198Z,70.55
2022-10-05T05:23:29.151Z,70.05
2022-10-05T05:26:05.788Z,71.18
2022-10-05T05:28:39.464Z,71.47
2022-10-05T05:31:14.703Z,71.94
2022-10-05T05:33:49.892Z,70.55
2022-10-05T05:36:30.019Z,71.31
2022-10-05T05:39:15.920Z,71.02
2022-10-05T05:41:54.221Z,71.80
2022-10-05T05:44:24.865Z,71.04
2022-10-05T05:47:03.959Z,70.13
2022-10-05T05:49:42.261Z,71.37
2022-10-05T05:52:15.973Z,73.22
2022-10-05T05:54:46.550Z,72.19
2022-10-05T05:57:17.398Z,74.00
2022-10-05T05:59:53.466Z,72.01
2022-10-05T06:02:24.359Z,72.73
2022-10-05T06:04:55.644Z,74.39
2022-10-05T06:07:30.532Z,73.72
2022-10-05T06:10:06.139Z,74.65
2022-10-05T06:12:36.857Z,73.77
2022-10-05T06:15:13.464Z,74.49
2022-10-05T06:17:45.146Z,73.69
2022-10-05T06:20:20.477Z,72.88
2022-10-05T06:22:48.809Z,74.08
2022-10-05T06:25:25.661Z,73.66
2022-10-05T06:28:02.928Z,73.67
2022-10-05T06:30:43.148Z,73.48
2022-10-05T06:33:22.701Z,73.80
2022-10-05T06:36:03.790Z,73.44
2022-10-05T06:38:48.144Z,73.00
2022-10-05T06:41:21.940Z,72.52
2022-10-05T06:43:57.058Z,72.00
2022-10-05T06:46:28.054Z,72.03
2022-10-05T06:49:16.480Z,71.61
2022-10-05T06:51:51.456Z,72.35
2022-10-05T06:54:36.965Z,70.93
2022-10-05T06:57:10.331Z,71.71
2022-10-05T06:59:46.385Z,71.42
2022-10-05T07:02:21.193Z,68.21
2022-10-05T07:04:59.173Z,70.66
2022-10-05T07:07:37.400Z,68.46
2022-10-05T07:10:17.138Z,68.73
2022-10-05T07:12:58.253Z,68.13
2022-10-05T07:15:44.720Z,69.73
2022-10-05T07:18:28.795Z,67.46
2022-10-05T07:21:03.902Z,68.14
2022-10-05T07:23:45.982Z,66.55
2022-10-05T07:26:21.903Z,66.77
2022-10-05T07:28:57.837Z,65.65
2022-10-05T07:31:32.943Z,66.71
2022-10-05T07:34:06.528Z,68.10
2022-10-05T07:36:36.851Z,67.79
2022-10-05T07:39:10.613Z,70.17
2022-10-05T07:41:42.300Z,69.06
2022-10-05T07:44:15.876Z,69.13
2022-10-05T07:46:47.566Z,69.40
2022-10-05T07:49:22.604Z,69.82
2022-10-05T07:51:52.907Z,69.36
2022-10-05T07:54:25.039Z,68.78
2022-10-05T07:56:59.843Z,69.38
2022-10-05T07:59:34.540Z,68.48
2022-10-05T08:02:11.594Z,69.02
2022-10-05T08:04:45.784Z,69.42
2022-10-05T08:07:15.612Z,71.63
2022-10-05T08:09:46.260Z,69.18
2022-10-05T08:12:25.253Z,68.90
2022-10-05T08:14:57.049Z,68.60
2022-10-05T08:17:35.481Z,68.15
2022-10-05T08:20:15.998Z,66.37
2022-10-05T08:22:49.235Z,65.57
2022-10-05T08:25:22.000Z,67.23
2022-10-05T08:27:55.915Z,66.27
2022-10-05T08:30:23.745Z,64.77
2022-10-05T08:32:54.893Z,62.84
2022-10-05T08:35:28.475Z,65.36
2022-10-05T08:37:54.756Z,64.90
2022-10-05T08:41:03.621Z,64.41
2022-10-05T08:44:29.072Z,62.94
2022-10-05T08:47:14.990Z,65.80
2022-10-05T08:50:12.831Z,63.82
2022-10-05T08:53:01.142Z,64.52
2022-10-05T08:55:46.900Z,61.38
2022-10-05T08:58:52.244Z,62.05
2022-10-05T09:01:25.860Z,62.59
2022-10-05T09:04:03.549Z,61.58
2022-10-05T09:06:54.437Z,61.39
2022-10-05T09:09:47.458Z,61.52
2022-10-05T09:12:39.805Z,62.19
2022-10-05T09:15:31.601Z,61.91
2022-10-05T09:18:36.227Z,61.28
2022-10-05T09:21:12.773Z,61.29
2022-10-05T09:23:40.890Z,64.71
2022-10-05T09:26:28.455Z,64.45
2022-10-05T09:29:14.205Z,62.19
2022-10-05T09:31:55.717Z,60.33
2022-10-05T09:34:54.688Z,62.54
2022-10-05T09:37:38.775Z,61.53
2022-10-05T09:40:40.498Z,62.90
2022-10-05T09:43:47.881Z,62.38
2022-10-05T09:46:44.068Z,62.30
2022-10-05T09:49:33.724Z,59.61
2022-10-05T09:52:18.989Z,58.84
2022-10-05T09:55:19.465Z,60.15
2022-10-05T09:58:08.400Z,63.02
2022-10-05T10:00:58.817Z,60.75
2022-10-05T10:04:03.257Z,60.26
2022-10-05T10:07:24.496Z,59.40
2022-10-05T10:10:33.046Z,61.52
2022-10-05T10:13:22.178Z,60.75
2022-10-05T10:16:13.147Z,60.52
2022-10-05T10:19:05.666Z,65.90
2022-10-05T10:22:09.476Z,60.31
2022-10-05T10:24:58.896Z,59.96
2022-10-05T10:27:38.478Z,60.54
2022-10-05T10:30:36.534Z,60.68
2022-10-05T10:33:30.604Z,62.91
2022-10-05T10:36:06.076Z,60.09
2022-10-05T10:38:39.974Z,58.88
2022-10-05T10:41:26.947Z,59.78
2022-10-05T10:44:34.567Z,61.47
2022-10-05T10:47:27.257Z,60.03
2022-10-05T10:50:25.227Z,62.03
2022-10-05T10:53:04.590Z,58.72
2022-10-05T10:55:41.926Z,57.96
2022-10-05T10:58:59.859Z,59.51
2022-10-05T11:01:32.673Z,58.26
2022-10-05T11:04:31.025Z,58.34
2022-10-05T11:07:31.809Z,58.64
2022-10-05T11:10:29.498Z,59.69
2022-10-05T11:13:16.779Z,57.78
2022-10-05T11:16:14.594Z,58.42
2022-10-05T11:19:03.698Z,58.37
2022-10-05T11:21:38.421Z,57.79
2022-10-05T11:24:41.797Z,57.76
2022-10-05T11:27:33.570Z,57.93
2022-10-05T11:30:22.465Z,58.37
2022-10-05T11:33:10.345Z,56.46
2022-10-05T11:35:59.229Z,60.41
2022-10-05T11:38:47.058Z,57.77
2022-10-05T11:41:50.637Z,57.25
2022-10-05T11:44:59.763Z,57.90
2022-10-05T11:47:28.871Z,57.79
2022-10-05T11:50:04.247Z,58.25
2022-10-05T11:52:38.428Z,56.75
2022-10-05T11:55:24.197Z,57.37
2022-10-05T11:57:55.797Z,54.29
2022-10-05T12:00:23.603Z,55.86
2022-10-05T12:03:20.850Z,56.61
2022-10-05T12:06:00.011Z,55.56
2022-10-05T12:08:39.983Z,55.12
2022-10-05T12:11:25.538Z,57.01
2022-10-05T12:13:59.534Z,58.87
2022-10-05T12:16:31.581Z,57.88
2022-10-05T12:19:04.442Z,56.83
2022-10-05T12:21:40.442Z,53.22
2022-10-05T12:24:16.008Z,56.09
2022-10-05T12:26:50.356Z,53.51
2022-10-05T12:29:23.711Z,54.84
2022-10-05T12:31:58.542Z,56.31
2022-10-05T12:34:36.761Z,54.94
2022-10-05T12:37:12.950Z,56.54
2022-10-05T12:39:45.465Z,54.74
2022-10-05T12:42:25.859Z,55.87
2022-10-05T12:45:12.492Z,55.14
2022-10-05T12:47:54.015Z,55.60
2022-10-05T12:50:27.431Z,57.84
2022-10-05T12:53:13.668Z,54.50
2022-10-05T12:55:47.849Z,54.24
2022-10-05T12:58:28.534Z,56.19
2022-10-05T13:00:59.434Z,53.76
2022-10-05T13:03:34.136Z,54.01
2022-10-05T13:06:13.352Z,52.79
2022-10-05T13:08:49.439Z,56.47
2022-10-05T13:11:23.715Z,55.61
2022-10-05T13:14:02.271Z,55.81
2022-10-05T13:16:38.300Z,54.63
2022-10-05T13:19:19.548Z,54.24
2022-10-05T13:22:13.210Z,55.16
2022-10-05T13:24:52.205Z,55.07
2022-10-05T13:27:21.818Z,55.08
2022-10-05T13:29:54.700Z,54.49
2022-10-05T13:32:23.927Z,55.61
2022-10-05T13:34:57.354Z,55.15
2022-10-05T13:37:31.184Z,56.44
2022-10-05T13:40:10.987Z,55.92
2022-10-05T13:42:43.264Z,55.87
2022-10-05T13:45:17.527Z,56.12
2022-10-05T13:47:55.264Z,55.66
2022-10-05T13:50:28.443Z,54.31
2022-10-05T13:53:07.459Z,54.24
2022-10-05T13:55:42.990Z,54.18
2022-10-05T13:58:19.055Z,53.95
2022-10-05T14:00:53.405Z,54.27
2022-10-05T14:03:29.873Z,55.28
2022-10-05T14:05:58.208Z,54.01
2022-10-05T14:08:31.906Z,53.45
2022-10-05T14:10:58.378Z,55.54
2022-10-05T14:13:29.038Z,55.51
2022-10-05T14:15:59.740Z,53.18
2022-10-05T14:18:28.851Z,53.92
2022-10-05T14:21:14.244Z,54.21
2022-10-05T14:23:40.990Z,53.68
2022-10-05T14:26:17.969Z,56.12
2022-10-05T14:28:57.127Z,55.46
2022-10-05T14:31:31.558Z,56.92
2022-10-05T14:34:26.878Z,56.92
2022-10-05T14:36:58.013Z,58.12
2022-10-05T14:39:26.139Z,57.84
2022-10-05T14:41:52.794Z,57.72
2022-10-05T14:44:28.778Z,56.78
2022-10-05T14:46:58.322Z,56.18
2022-10-05T14:49:27.285Z,57.88
2022-10-05T14:51:55.301Z,58.56
2022-10-05T14:54:26.808Z,56.51
2022-10-05T14:57:05.132Z,57.48
2022-10-05T14:59:48.234Z,58.32
2022-10-05T15:02:45.407Z,58.69
2022-10-05T15:05:16.987Z,59.36
2022-10-05T15:07:45.851Z,59.52
2022-10-05T15:10:31.958Z,59.15
2022-10-05T15:13:11.335Z,57.86
2022-10-05T15:15:44.803Z,57.71
2022-10-05T15:18:27.161Z,59.95
2022-10-05T15:21:02.911Z,60.86
2022-10-05T15:23:37.798Z,57.79
2022-10-05T15:26:19.811Z,59.99
2022-10-05T15:28:53.676Z,58.37
2022-10-05T15:31:29.264Z,58.42
2022-10-05T15:34:02.911Z,58.27
2022-10-05T15:36:37.233Z,61.18
2022-10-05T15:39:11.690Z,61.09
2022-10-05T15:41:55.817Z,61.16
2022-10-05T15:44:31.572Z,58.88
2022-10-05T15:47:05.778Z,59.28
2022-10-05T15:49:41.428Z,59.33
2022-10-05T15:52:18.472Z,59.82
2022-10-05T15:55:20.260Z,60.30
2022-10-05T15:57:55.978Z,60.17
2022-10-05T16:00:24.755Z,59.98
2022-10-05T16:02:57.305Z,62.12
2022-10-05T16:05:34.391Z,61.54
2022-10-05T16:08:01.058Z,62.91
2022-10-05T16:10:32.993Z,61.14
2022-10-05T16:13:15.021Z,60.80
2022-10-05T16:15:45.975Z,60.75
2022-10-05T16:18:39.586Z,61.75
2022-10-05T16:21:21.971Z,62.64
2022-10-05T16:24:12.635Z,61.97
2022-10-05T16:26:52.619Z,62.39
2022-10-05T16:29:28.450Z,62.66
2022-10-05T16:32:00.129Z,63.23
2022-10-05T16:34:38.453Z,62.42
2022-10-05T16:37:18.552Z,63.73
2022-10-05T16:39:54.087Z,63.48
2022-10-05T16:42:35.028Z,63.66
2022-10-05T16:45:14.932Z,64.03
2022-10-05T16:47:49.246Z,65.15
2022-10-05T16:50:23.224Z,63.63
2022-10-05T16:52:55.984Z,65.99
2022-10-05T16:55:30.329Z,65.41
2022-10-05T16:57:59.373Z,66.46
2022-10-05T17:00:34.665Z,65.23
2022-10-05T17:03:12.568Z,66.09
2022-10-05T17:06:11.408Z,66.37
2022-10-05T17:08:55.922Z,67.92
2022-10-05T17:11:34.657Z,68.33
2022-10-05T17:14:20.414Z,68.01
2022-10-05T17:16:59.918Z,68.55
2022-10-05T17:19:47.292Z,65.72
2022-10-05T17:22:28.660Z,66.67
2022-10-05T17:25:06.819Z,68.84
2022-10-05T17:27:50.869Z,66.97
2022-10-05T17:30:47.158Z,67.15
2022-10-05T17:33:20.395Z,66.52
2022-10-05T17:35:53.442Z,67.72
2022-10-05T17:38:22.432Z,66.26
2022-10-05T17:41:24.300Z,66.28
2022-10-05T17:44:17.033Z,66.31
2022-10-05T17:46:45.004Z,67.70
2022-10-05T17:49:49.893Z,69.50
2022-10-05T17:52:25.281Z,67.29
2022-10-05T17:55:00.469Z,65.26
2022-10-05T17:57:28.471Z,65.93
2022-10-05T18:00:00.612Z,65.08
2022-10-05T18:02:42.285Z,64.55
2022-10-05T18:05:25.098Z,63.76
2022-10-05T18:08:28.907Z,66.62
2022-10-05T18:11:11.896Z,65.90
2022-10-05T18:13:42.802Z,66.01
2022-10-05T18:16:10.270Z,67.43
2022-10-05T18:18:55.748Z,66.15
2022-10-05T18:21:31.476Z,65.54
2022-10-05T18:24:07.500Z,64.45
2022-10-05T18:26:41.645Z,64.23
2022-10-05T18:29:23.183Z,63.52
2022-10-05T18:31:57.573Z,65.66
2022-10-05T18:34:29.991Z,63.84
2022-10-05T18:37:18.062Z,64.11
2022-10-05T18:40:00.092Z,63.73
2022-10-05T18:42:36.496Z,64.07
2022-10-05T18:45:21.725Z,64.59
2022-10-05T18:48:02.107Z,63.69
2022-10-05T18:50:36.867Z,65.69
2022-10-05T18:53:17.949Z,64.61
2022-10-05T18:55:47.619Z,63.95
2022-10-05T18:58:20.108Z,62.36
2022-10-05T19:01:28.611Z,62.66
2022-10-05T19:04:08.792Z,63.62
2022-10-05T19:06:43.679Z,61.74
2022-10-05T19:09:23.455Z,61.28
2022-10-05T19:11:57.359Z,62.17
2022-10-05T19:14:33.930Z,62.47
2022-10-05T19:17:18.105Z,63.65
2022-10-05T19:20:05.142Z,62.31
2022-10-05T19:22:46.244Z,60.93
2022-10-05T19:25:24.326Z,61.03
2022-10-05T19:28:02.245Z,61.80
2022-10-05T19:30:43.268Z,61.57
2022-10-05T19:33:25.556Z,60.57
2022-10-05T19:36:04.465Z,62.29
2022-10-05T19:38:40.992Z,61.64
2022-10-05T19:41:14.248Z,59.95
2022-10-05T19:44:04.631Z,60.90
2022-10-05T19:46:53.629Z,62.54
2022-10-05T19:49:39.862Z,63.04
2022-10-05T19:52:11.845Z,62.25
2022-10-05T19:54:38.491Z,63.50
2022-10-05T19:57:15.575Z,62.62
2022-10-05T19:59:45.898Z,62.02
2022-10-05T20:02:15.337Z,62.61
2022-10-05T20:04:43.619Z,62.74
2022-10-05T20:07:15.603Z,64.46
2022-10-05T20:09:51.110Z,62.56
2022-10-05T20:12:17.707Z,63.57
2022-10-05T20:14:44.294Z,62.35
2022-10-05T20:17:15.501Z,62.70
2022-10-05T20:19:41.945Z,64.75
2022-10-05T20:22:32.189Z,63.86
2022-10-05T20:25:00.239Z,63.02
2022-10-05T20:27:43.091Z,62.95
2022-10-05T20:30:11.790Z,61.74
2022-10-05T20:32:38.455Z,63.64
2022-10-05T20:35:05.796Z,63.26
2022-10-05T20:37:33.632Z,62.83
2022-10-05T20:40:00.107Z,61.94
2022-10-05T20:42:26.563Z,61.55
2022-10-05T20:44:56.710Z,61.83
2022-10-05T20:47:23.857Z,62.45
2022-10-05T20:49:50.353Z,62.83
2022-10-05T20:52:16.782Z,61.60
2022-10-05T20:57:15.888Z,62.84
2022-10-05T20:59:42.315Z,62.23
2022-10-05T21:02:08.873Z,63.21
2022-10-05T21:04:40.232Z,62.88
2022-10-05T21:07:07.768Z,65.01
2022-10-05T21:09:34.226Z,63.40
2022-10-05T21:12:01.963Z,63.01
2022-10-05T21:14:28.509Z,63.97
2022-10-05T21:16:54.972Z,63.68
2022-10-05T21:19:21.380Z,62.65
2022-10-05T21:21:47.767Z,62.42
2022-10-05T21:24:15.005Z,63.04
2022-10-05T21:26:42.381Z,62.31
2022-10-05T21:29:12.744Z,63.62
2022-10-05T21:31:40.014Z,63.52
2022-10-05T21:34:06.752Z,63.57
2022-10-05T21:36:33.242Z,63.10
2022-10-05T21:38:59.726Z,63.53
2022-10-05T21:41:26.474Z,64.34
2022-10-05T21:43:53.077Z,65.37
2022-10-05T21:46:23.031Z,63.52
2022-10-05T21:48:49.940Z,63.93
2022-10-05T21:51:18.396Z,63.81
2022-10-05T21:53:49.870Z,62.45
2022-10-05T21:56:19.194Z,62.00
2022-10-05T21:58:47.349Z,64.92
2022-10-05T22:01:15.942Z,63.88
2022-10-05T22:03:45.648Z,63.37
2022-10-05T22:06:12.155Z,63.58
2022-10-05T22:08:38.691Z,64.40
2022-10-05T22:11:14.205Z,63.02
2022-10-05T22:13:43.333Z,62.48
2022-10-05T22:16:10.383Z,62.15
2022-10-05T22:18:37.358Z,62.78
2022-10-05T22:21:06.326Z,62.41
2022-10-05T22:23:33.309Z,62.46
2022-10-05T22:26:00.084Z,62.57
2022-10-05T22:28:27.507Z,61.92
2022-10-05T22:30:54.256Z,62.10
2022-10-05T22:33:20.657Z,62.73
2022-10-05T22:35:47.169Z,62.94
2022-10-05T22:38:14.987Z,62.20
2022-10-05T22:40:41.390Z,64.01
2022-10-05T22:43:08.010Z,62.62
2022-10-05T22:45:34.577Z,62.39
2022-10-05T22:48:01.045Z,61.77
2022-10-05T22:50:27.591Z,62.66
2022-10-05T22:52:54.028Z,62.29
2022-10-05T22:55:21.855Z,61.73
2022-10-05T22:57:48.259Z,61.30
2022-10-05T23:00:15.301Z,61.13
2022-10-05T23:02:43.404Z,61.98
2022-10-05T23:05:10.958Z,62.08
2022-10-05T23:07:38.240Z,62.62
2022-10-05T23:10:06.235Z,62.61
2022-10-05T23:12:34.084Z,63.20
2022-10-05T23:15:00.636Z,63.97
2022-10-05T23:17:27.142Z,63.06
2022-10-05T23:19:54.405Z,63.16
2022-10-05T23:22:21.056Z,63.38
2022-10-05T23:24:47.483Z,61.91
2022-10-05T23:27:13.934Z,61.73
2022-10-05T23:29:41.749Z,62.42
2022-10-05T23:32:08.175Z,64.02
2022-10-05T23:34:34.651Z,63.19
2022-10-05T23:37:01.115Z,63.09
2022-10-05T23:39:27.633Z,62.90
2022-10-05T23:41:54.070Z,62.16
2022-10-05T23:44:20.495Z,62.34
2022-10-05T23:46:48.943Z,62.38
2022-10-05T23:49:15.414Z,62.27
2022-10-05T23:51:41.815Z,62.60
2022-10-05T23:54:08.241Z,62.44
2022-10-05T23:56:34.691Z,62.72
2022-10-05T23:59:01.088Z,61.56
